This is the latest recevied weather packets stored in our database for station/object N9UMJ-12. If no packets are shown the sender has not sent any weather packets the latest 10 day(s).
| Time | Temp. | Humidity | Pressure | Rain* | Wind** | Luminosity | Snow |
|---|---|---|---|---|---|---|---|
| 1778156119 | 7.22° C | 99% | 1017.5 hPa | 0 mm | - | 161 W/m² | - |
| 1778153720 | 3.33° C | 99% | 1017.2 hPa | 0 mm | - | 65 W/m² | - |
| 1778153137 | 2.78° C | 99% | 1017.2 hPa | 0 mm | - | 47 W/m² | - |
| 1778152522 | 2.22° C | 99% | 1017.2 hPa | 0 mm | - | 26 W/m² | - |
| 1778145924 | 3.33° C | 98% | 1016.8 hPa | 0 mm | - | 0 W/m² | - |
| 1778142325 | 4.44° C | 98% | 1016.6 hPa | 0 mm | - | 0 W/m² | - |
| 1778140525 | 5° C | 97% | 1016.4 hPa | 0 mm | - | 0 W/m² | - |
| 1778139919 | 5° C | 98% | 1016.4 hPa | 0 mm | - | 0 W/m² | - |
| 1778137516 | 4.44° C | 98% | 1016.4 hPa | 0 mm | - | 0 W/m² | - |
| 1778134517 | 5° C | 97% | 1016.5 hPa | 0 mm | - | 0 W/m² | - |
| 1778133917 | 5.56° C | 97% | 1016.5 hPa | 0 mm | - | 0 W/m² | - |
| 1778123737 | 7.22° C | 89% | 1016.6 hPa | 0 mm | - | 0 W/m² | - |
| 1778122520 | 7.78° C | 88% | 1016.6 hPa | 0 mm | - | 0 W/m² | - |
| 1778121920 | 8.33° C | 85% | 1016.4 hPa | 0 mm | - | 0 W/m² | - |
| 1778118318 | 8.89° C | 82% | 1015.7 hPa | 0 mm | - | 0 W/m² | - |
| 1778114739 | 12.22° C | 69% | 1015.3 hPa | 0 mm | - | 4 W/m² | - |
| 1778113516 | 12.78° C | 64% | 1015.2 hPa | 0 mm | - | 18 W/m² | - |
| 1778111720 | 14.44° C | 58% | 1015 hPa | 0 mm | - | 53 W/m² | - |
| 1778105739 | 15.56° C | 59% | 1014.6 hPa | 0 mm | - | 347 W/m² | - |
| 1778102720 | 14.44° C | 63% | 1014.9 hPa | 0 mm | - | 464 W/m² | - |
| 1778099718 | 14.44° C | 64% | 1014.9 hPa | 0 mm | - | 430 W/m² | - |
| 1778096119 | 15° C | 69% | 1014.9 hPa | 0 mm | - | 859 W/m² | - |
| 1778095519 | 14.44° C | 69% | 1015 hPa | 0 mm | - | 715 W/m² | - |
| 1778092517 | 13.89° C | 71% | 1015.1 hPa | 0 mm | - | 405 W/m² | - |
| 1778090717 | 13.89° C | 70% | 1014.8 hPa | 0 mm | - | 467 W/m² | - |
* Rain latest hour (hover to see other rain measurements)
** Current wind speed in m/s (hover to see current wind gust speed)